Time;durP1;ratioP1;P1;durP2;ratioP2;P2;SDS_P1;SDS_P2;PMS_P1;PMS_P2;Temp;Humidity;BMP_temperature;BMP_pressure;BME280_temperature;BME280_humidity;BME280_pressure;Samples;Min_cycle;Max_cycle;Signal;HPM_P1;HPM_P2
2022/07/25 00:00:34;;;;;;;8.10;7.25;;;;;;;22.58;73.79;100938.44;5113405;28;20286;-59
2022/07/25 00:03:00;;;;;;;8.00;7.03;;;;;;;22.60;73.50;100930.34;5113566;28;20443;-59
2022/07/25 00:05:25;;;;;;;8.32;7.38;;;;;;;22.60;73.25;100929.47;5113512;28;20039;-59
2022/07/25 00:07:51;;;;;;;8.52;7.13;;;;;;;22.51;72.90;100915.75;5113550;28;20076;-58
2022/07/25 00:10:16;;;;;;;9.93;8.02;;;;;;;22.44;73.55;100919.75;5113362;28;20118;-60
2022/07/25 00:12:41;;;;;;;7.80;7.00;;;;;;;22.51;72.91;100910.41;5113465;28;20063;-60
2022/07/25 00:15:07;;;;;;;7.97;6.95;;;;;;;22.49;72.90;100915.00;5113198;28;20643;-60
2022/07/25 00:17:33;;;;;;;11.60;7.25;;;;;;;22.41;72.43;100903.94;5113368;28;20043;-59
2022/07/25 00:19:59;;;;;;;8.52;7.15;;;;;;;22.47;71.94;100914.25;5113483;28;20040;-60
2022/07/25 00:22:24;;;;;;;9.77;7.35;;;;;;;22.40;71.90;100906.69;5113324;28;20346;-60
2022/07/25 00:24:49;;;;;;;8.45;7.07;;;;;;;22.43;72.09;100902.03;5113190;28;20036;-59
2022/07/25 00:27:15;;;;;;;8.13;7.07;;;;;;;22.41;72.51;100897.75;5113290;28;20032;-59
2022/07/25 00:29:40;;;;;;;7.85;7.15;;;;;;;22.43;72.27;100896.72;5112991;28;20035;-59
2022/07/25 00:32:05;;;;;;;8.50;7.63;;;;;;;22.37;72.25;100896.22;5113036;28;20058;-60
2022/07/25 00:34:31;;;;;;;8.18;7.07;;;;;;;22.32;71.94;100885.84;5112949;28;20027;-60
2022/07/25 00:36:56;;;;;;;8.20;7.18;;;;;;;22.31;72.85;100885.94;5113171;28;20046;-58
2022/07/25 00:39:21;;;;;;;10.07;7.50;;;;;;;22.30;72.20;100887.75;5112997;28;20126;-59
2022/07/25 00:41:47;;;;;;;9.32;7.50;;;;;;;22.28;72.77;100886.13;5112813;28;20047;-58
2022/07/25 00:44:26;;;;;;;10.23;7.50;;;;;;;22.23;72.46;100876.59;5112686;28;20027;-59
2022/07/25 00:46:52;;;;;;;8.77;7.88;;;;;;;22.17;72.94;100874.28;5112743;28;20031;-59
2022/07/25 00:49:17;;;;;;;9.90;7.22;;;;;;;22.22;72.01;100866.03;5112864;28;20112;-59
2022/07/25 00:51:43;;;;;;;9.25;7.78;;;;;;;22.15;72.98;100865.56;5112827;28;20066;-60
2022/07/25 00:54:09;;;;;;;7.82;7.03;;;;;;;22.12;72.88;100871.06;5112616;28;20562;-60
2022/07/25 00:56:35;;;;;;;10.65;7.38;;;;;;;22.15;70.50;100854.03;5112604;28;20134;-60
2022/07/25 00:59:00;;;;;;;8.80;7.30;;;;;;;22.33;69.15;100863.56;5112460;28;20491;-57
2022/07/25 01:01:25;;;;;;;8.20;7.18;;;;;;;22.38;68.80;100860.59;5112535;28;20288;-58
2022/07/25 01:03:51;;;;;;;8.73;7.10;;;;;;;22.44;68.24;100866.41;5112573;28;20036;-58
2022/07/25 01:06:16;;;;;;;9.13;7.20;;;;;;;22.48;67.81;100862.63;5112543;28;20028;-60
2022/07/25 01:08:42;;;;;;;9.23;7.28;;;;;;;22.48;67.62;100849.28;5112347;28;20039;-60
2022/07/25 01:11:07;;;;;;;9.63;7.00;;;;;;;22.48;67.48;100838.63;5112217;28;20031;-58
2022/07/25 01:13:33;;;;;;;9.73;6.93;;;;;;;22.49;66.86;100842.13;5112331;28;20035;-59
2022/07/25 01:15:59;;;;;;;7.82;7.03;;;;;;;22.52;67.18;100837.44;5112255;28;20038;-58
2022/07/25 01:18:24;;;;;;;8.60;6.88;;;;;;;22.55;66.58;100837.25;5112304;28;20046;-59
2022/07/25 01:20:49;;;;;;;8.05;7.13;;;;;;;22.53;66.46;100835.63;5112438;28;20031;-58
2022/07/25 01:23:15;;;;;;;9.05;7.05;;;;;;;22.51;65.57;100829.56;5111992;28;20369;-58
2022/07/25 01:25:40;;;;;;;8.63;7.22;;;;;;;22.52;65.23;100825.91;5111855;28;20475;-59
2022/07/25 01:28:05;;;;;;;8.70;7.03;;;;;;;22.56;65.31;100827.44;5112309;28;20430;-60
2022/07/25 01:30:30;;;;;;;7.13;6.43;;;;;;;22.56;65.25;100828.31;5112117;28;20141;-59
2022/07/25 01:32:56;;;;;;;7.78;6.75;;;;;;;22.53;64.80;100831.16;5093537;28;20363;-57
2022/07/25 01:35:21;;;;;;;8.63;6.95;;;;;;;22.54;64.89;100824.88;5112029;28;20028;-60
2022/07/25 01:37:47;;;;;;;11.80;6.70;;;;;;;22.53;64.94;100820.50;5111836;28;20032;-59
2022/07/25 01:40:12;;;;;;;7.32;6.40;;;;;;;22.52;64.91;100809.91;5111997;28;20061;-59
2022/07/25 01:42:39;;;;;;;7.57;6.25;;;;;;;22.55;64.53;100818.59;5112109;28;20056;-60
2022/07/25 01:45:05;;;;;;;7.97;6.60;;;;;;;22.54;64.44;100806.19;5111747;28;20031;-59
2022/07/25 01:47:30;;;;;;;9.40;6.43;;;;;;;22.50;64.43;100806.50;5112110;28;20040;-60
2022/07/25 01:49:55;;;;;;;7.00;6.30;;;;;;;22.56;64.20;100806.97;5114332;28;20028;-59
2022/07/25 01:52:21;;;;;;;7.83;7.03;;;;;;;22.52;64.00;100800.09;5118672;28;20039;-59
2022/07/25 01:54:46;;;;;;;7.73;6.73;;;;;;;22.54;64.30;100798.19;5118628;28;20265;-60
2022/07/25 01:57:11;;;;;;;8.02;6.68;;;;;;;22.56;63.65;100790.97;5118591;28;20691;-60
2022/07/25 01:59:40;;;;;;;8.07;6.47;;;;;;;22.54;63.83;100787.53;5118485;28;20031;-59
2022/07/25 02:02:07;;;;;;;9.38;6.55;;;;;;;22.52;63.96;100784.09;5118610;28;20035;-59
2022/07/25 02:04:33;;;;;;;7.53;6.57;;;;;;;22.53;63.70;100788.47;5118456;28;20342;-60
2022/07/25 02:06:58;;;;;;;7.80;6.50;;;;;;;22.52;63.87;100785.91;5118521;28;20039;-60
2022/07/25 02:09:24;;;;;;;8.15;6.45;;;;;;;22.55;63.84;100777.72;5118370;28;20160;-59
2022/07/25 02:11:49;;;;;;;8.82;6.30;;;;;;;22.53;63.49;100777.81;5118302;28;20057;-59
2022/07/25 02:14:14;;;;;;;9.27;7.17;;;;;;;22.57;63.51;100781.16;5118491;28;20035;-58
2022/07/25 02:16:40;;;;;;;8.35;6.30;;;;;;;22.56;64.03;100776.75;5118494;28;20289;-59
2022/07/25 02:19:05;;;;;;;7.97;6.82;;;;;;;22.54;62.79;100768.84;5118606;28;20523;-58
2022/07/25 02:21:30;;;;;;;10.02;6.80;;;;;;;22.55;63.07;100769.72;5118581;28;20085;-59
2022/07/25 02:23:56;;;;;;;7.30;6.60;;;;;;;22.54;62.82;100771.53;5118114;28;20042;-58
2022/07/25 02:26:21;;;;;;;7.85;6.70;;;;;;;22.51;63.02;100774.38;5118330;28;20035;-60
2022/07/25 02:28:48;;;;;;;7.95;6.40;;;;;;;22.49;62.73;100776.31;5118438;28;20042;-59
2022/07/25 02:31:14;;;;;;;8.57;6.57;;;;;;;22.50;63.23;100770.03;5118409;28;20035;-60
2022/07/25 02:33:39;;;;;;;9.07;6.57;;;;;;;22.49;63.06;100767.47;5109805;28;20056;-61
2022/07/25 02:36:05;;;;;;;8.23;6.60;;;;;;;22.50;62.92;100758.50;5097860;28;20519;-59
2022/07/25 02:38:30;;;;;;;7.35;6.60;;;;;;;22.51;62.82;100761.03;5097727;28;20135;-58
2022/07/25 02:40:55;;;;;;;7.05;6.32;;;;;;;22.49;62.84;100757.66;5097801;28;20111;-58
2022/07/25 02:43:21;;;;;;;8.97;6.17;;;;;;;22.47;62.52;100756.88;5097778;28;20036;-58
2022/07/25 02:45:46;;;;;;;7.30;6.18;;;;;;;22.45;62.23;100745.47;5097591;28;20321;-60
2022/07/25 02:48:12;;;;;;;7.60;6.55;;;;;;;22.46;62.24;100744.50;5097712;28;20074;-58
2022/07/25 02:50:37;;;;;;;7.68;6.45;;;;;;;22.42;62.36;100740.31;5097873;28;20113;-59
2022/07/25 02:53:03;;;;;;;7.45;6.22;;;;;;;22.43;62.33;100747.38;5097483;28;20038;-59
2022/07/25 02:55:29;;;;;;;7.65;6.13;;;;;;;22.38;62.26;100743.28;5097739;28;20031;-59
2022/07/25 02:57:54;;;;;;;7.82;6.53;;;;;;;22.38;62.77;100737.94;5097792;28;20040;-59
2022/07/25 03:00:19;;;;;;;10.23;6.65;;;;;;;22.37;62.59;100742.41;5097499;28;20031;-59
2022/07/25 03:02:45;;;;;;;8.23;6.45;;;;;;;22.32;62.28;100741.88;5093516;28;20055;-60
2022/07/25 03:05:13;;;;;;;7.85;6.68;;;;;;;22.31;62.61;100740.16;5094467;28;20354;-60
2022/07/25 03:07:38;;;;;;;7.00;6.30;;;;;;;22.30;62.22;100730.44;5094404;28;20032;-60
2022/07/25 03:10:06;;;;;;;8.20;6.32;;;;;;;22.32;62.60;100725.03;5094208;28;20078;-60
2022/07/25 03:12:31;;;;;;;8.93;7.00;;;;;;;22.32;62.14;100730.34;5094053;28;20111;-59
2022/07/25 03:14:58;;;;;;;9.85;6.68;;;;;;;22.30;62.10;100713.59;5094239;28;20042;-59
2022/07/25 03:17:23;;;;;;;7.95;6.30;;;;;;;22.32;61.96;100714.34;5094420;28;20090;-58
2022/07/25 03:19:49;;;;;;;9.40;7.28;;;;;;;22.26;62.11;100718.25;5094252;28;20517;-60
2022/07/25 03:22:14;;;;;;;9.03;6.33;;;;;;;22.26;62.30;100718.25;5093576;28;20577;-59
2022/07/25 03:24:39;;;;;;;6.83;6.23;;;;;;;22.25;62.47;100716.53;5093823;28;20302;-59
2022/07/25 03:27:04;;;;;;;9.00;6.63;;;;;;;22.24;62.15;100714.84;5093626;28;20274;-58
2022/07/25 03:29:30;;;;;;;7.35;6.40;;;;;;;22.24;62.09;100720.16;5094235;28;20266;-58
2022/07/25 03:31:55;;;;;;;7.77;6.90;;;;;;;22.23;61.90;100713.13;5093794;28;20510;-59
2022/07/25 03:34:20;;;;;;;8.37;6.80;;;;;;;22.22;61.87;100711.41;5093914;28;20291;-57
2022/07/25 03:36:45;;;;;;;7.20;6.50;;;;;;;22.23;61.86;100710.44;5093680;28;20300;-61
2022/07/25 03:39:11;;;;;;;7.25;6.55;;;;;;;22.23;61.98;100715.78;5093537;28;20118;-59
2022/07/25 03:41:36;;;;;;;8.43;6.57;;;;;;;22.23;61.76;100713.13;5093581;28;20032;-58
2022/07/25 03:44:02;;;;;;;8.17;6.57;;;;;;;22.18;61.93;100709.88;5093539;28;20028;-59
2022/07/25 03:46:27;;;;;;;8.02;6.72;;;;;;;22.20;62.19;100713.31;5093675;28;20294;-59
2022/07/25 03:48:54;;;;;;;8.40;6.35;;;;;;;22.22;62.05;100714.94;5093618;28;20039;-58
2022/07/25 03:51:19;;;;;;;7.45;6.63;;;;;;;22.13;63.02;100706.69;5093571;28;20063;-62
2022/07/25 03:54:03;;;;;;;8.00;6.10;;;;;;;22.11;63.32;100720.09;5093448;28;20075;-60
2022/07/25 03:56:30;;;;;;;9.00;6.53;;;;;;;22.01;63.92;100716.28;5093466;28;20093;-60
2022/07/25 03:58:56;;;;;;;7.68;5.95;;;;;;;22.01;63.67;100712.75;5093440;28;20024;-58
2022/07/25 04:01:21;;;;;;;9.15;7.05;;;;;;;21.98;63.42;100710.28;5093484;28;20086;-59
2022/07/25 04:03:46;;;;;;;8.45;6.78;;;;;;;22.03;63.34;100705.53;5093084;28;20050;-60
2022/07/25 04:06:12;;;;;;;9.73;7.20;;;;;;;22.01;62.63;100691.44;5093077;28;20127;-59
2022/07/25 04:08:37;;;;;;;7.63;6.45;;;;;;;22.04;63.30;100696.59;5093102;28;20356;-59
2022/07/25 04:11:02;;;;;;;10.97;7.17;;;;;;;22.06;62.88;100700.88;5093081;28;20444;-60
2022/07/25 04:13:28;;;;;;;8.20;6.93;;;;;;;22.04;62.84;100696.59;5092543;28;20278;-60
2022/07/25 04:15:54;;;;;;;9.18;7.50;;;;;;;22.06;62.89;100703.53;5093116;28;20039;-58
2022/07/25 04:18:19;;;;;;;9.73;6.93;;;;;;;22.00;63.97;100698.56;5093129;28;20431;-58
2022/07/25 04:20:44;;;;;;;9.20;6.43;;;;;;;22.02;63.47;100694.00;5092994;28;20721;-58
2022/07/25 04:23:09;;;;;;;10.52;6.95;;;;;;;22.03;63.34;100692.19;5092884;28;20274;-58
2022/07/25 04:25:35;;;;;;;9.33;7.00;;;;;;;22.00;63.35;100695.06;5092397;28;20027;-59
2022/07/25 04:28:00;;;;;;;9.05;6.72;;;;;;;21.98;63.12;100692.47;5092788;28;20574;-59
2022/07/25 04:30:25;;;;;;;10.48;6.80;;;;;;;22.01;63.18;100696.75;5092939;28;20115;-58
2022/07/25 04:32:51;;;;;;;12.23;6.93;;;;;;;21.98;63.10;100691.63;5092356;28;20064;-59
2022/07/25 04:35:16;;;;;;;8.10;7.13;;;;;;;21.92;63.06;100671.53;5092547;28;20278;-59
2022/07/25 04:37:42;;;;;;;7.60;6.80;;;;;;;22.00;63.56;100711.91;5092438;28;20123;-58
2022/07/25 04:40:09;;;;;;;10.30;6.95;;;;;;;21.87;63.52;100694.94;5092461;28;20262;-60
2022/07/25 04:42:34;;;;;;;10.07;7.18;;;;;;;21.95;63.16;100713.13;5092568;28;20031;-59
2022/07/25 04:45:00;;;;;;;9.48;6.88;;;;;;;21.98;63.70;100702.28;5092462;28;20039;-59
2022/07/25 04:47:25;;;;;;;7.57;6.78;;;;;;;22.02;63.64;100694.00;5092574;28;20115;-59
2022/07/25 04:49:50;;;;;;;9.45;6.78;;;;;;;21.92;63.28;100673.34;5092365;28;20032;-59
2022/07/25 04:52:16;;;;;;;10.93;6.88;;;;;;;22.06;63.45;100682.22;5092414;28;20032;-58
2022/07/25 04:54:41;;;;;;;8.40;7.10;;;;;;;22.04;63.39;100665.47;5092242;28;20439;-58
2022/07/25 04:57:06;;;;;;;7.75;6.50;;;;;;;22.12;63.37;100679.16;5092113;28;20274;-59
2022/07/25 04:59:31;;;;;;;7.20;6.30;;;;;;;22.10;63.18;100683.72;5092251;28;20031;-60
2022/07/25 05:01:57;;;;;;;8.53;6.73;;;;;;;22.18;63.13;100692.06;5092167;28;20086;-60
2022/07/25 05:04:22;;;;;;;8.80;6.60;;;;;;;22.15;63.53;100681.63;5092147;28;20615;-60
2022/07/25 05:06:47;;;;;;;9.53;6.53;;;;;;;22.23;63.40;100687.31;5092240;28;20278;-60
2022/07/25 05:09:12;;;;;;;7.95;6.38;;;;;;;22.28;63.20;100688.84;5092044;28;20281;-60
2022/07/25 05:11:38;;;;;;;9.77;6.45;;;;;;;22.30;63.02;100690.47;5091948;28;20032;-60
2022/07/25 05:14:03;;;;;;;8.48;6.55;;;;;;;22.33;63.36;100682.25;5091920;28;20427;-59
2022/07/25 05:16:29;;;;;;;9.13;6.38;;;;;;;22.38;63.39;100681.94;5092049;28;20178;-61
2022/07/25 05:18:54;;;;;;;9.05;6.50;;;;;;;22.36;63.25;100684.69;5091539;28;20516;-60
2022/07/25 05:21:19;;;;;;;10.18;6.80;;;;;;;22.40;62.96;100691.56;5091452;28;20440;-60
2022/07/25 05:23:45;;;;;;;10.40;6.72;;;;;;;22.41;62.97;100687.09;5095424;28;20364;-61
2022/07/25 05:26:10;;;;;;;8.07;6.93;;;;;;;22.43;63.40;100690.50;5107091;28;20449;-60
2022/07/25 05:28:35;;;;;;;8.40;6.60;;;;;;;22.50;63.39;100689.16;5104837;28;20068;-60
2022/07/25 05:31:01;;;;;;;12.00;6.83;;;;;;;22.51;63.06;100685.53;5091587;28;20282;-58
2022/07/25 05:33:26;;;;;;;9.27;6.93;;;;;;;22.55;62.75;100693.22;5091596;28;20605;-58
2022/07/25 05:35:51;;;;;;;7.57;6.47;;;;;;;22.62;62.84;100688.34;5091412;28;20039;-58
2022/07/25 05:38:17;;;;;;;8.70;7.13;;;;;;;22.65;62.84;100695.31;5091520;28;20094;-58
2022/07/25 05:40:42;;;;;;;8.25;7.15;;;;;;;22.61;63.16;100694.63;5091549;28;20028;-58
2022/07/25 05:43:07;;;;;;;13.85;7.85;;;;;;;22.58;63.55;100701.03;5091486;28;20039;-58
2022/07/25 05:45:33;;;;;;;11.77;7.30;;;;;;;22.61;63.17;100697.31;5091467;28;20067;-58
2022/07/25 05:47:58;;;;;;;10.70;7.10;;;;;;;22.68;63.56;100697.78;5091654;28;20046;-59
2022/07/25 05:50:24;;;;;;;9.05;7.22;;;;;;;22.67;63.53;100694.25;5091338;28;20047;-58
2022/07/25 05:52:49;;;;;;;9.90;7.25;;;;;;;22.66;63.21;100697.00;5091333;28;20063;-58
2022/07/25 05:55:14;;;;;;;11.57;6.93;;;;;;;22.67;63.38;100693.38;5091391;28;20093;-58
2022/07/25 05:57:40;;;;;;;9.65;7.43;;;;;;;22.70;63.80;100703.84;5091325;28;20036;-58
2022/07/25 06:00:06;;;;;;;8.38;6.95;;;;;;;22.62;63.75;100708.84;5091344;28;20051;-58
2022/07/25 06:02:31;;;;;;;12.07;6.97;;;;;;;22.61;63.95;100718.66;5091304;28;20431;-58
2022/07/25 06:04:58;;;;;;;10.65;7.10;;;;;;;22.54;63.58;100715.50;5091229;28;20123;-58
2022/07/25 06:07:23;;;;;;;11.32;6.95;;;;;;;22.51;64.18;100713.03;5091407;28;20153;-58
2022/07/25 06:09:48;;;;;;;9.23;7.00;;;;;;;22.54;64.09;100720.84;5091324;28;20462;-58
2022/07/25 06:12:14;;;;;;;10.48;7.03;;;;;;;22.59;63.87;100720.56;5106999;28;20292;-58
2022/07/25 06:14:39;;;;;;;9.23;6.28;;;;;;;22.56;64.03;100721.59;5111629;28;20104;-58
2022/07/25 06:17:04;;;;;;;9.88;6.72;;;;;;;22.55;63.69;100719.91;5111818;28;20036;-58
2022/07/25 06:19:29;;;;;;;10.13;6.83;;;;;;;22.44;63.30;100711.75;5111560;28;20039;-58
2022/07/25 06:21:55;;;;;;;8.73;6.63;;;;;;;22.38;63.89;100724.59;5111483;28;20308;-58
2022/07/25 06:24:20;;;;;;;12.02;6.43;;;;;;;22.38;63.91;100720.13;5091713;28;20294;-58
2022/07/25 06:26:45;;;;;;;9.23;5.97;;;;;;;22.39;64.07;100724.50;5091096;28;20027;-59
2022/07/25 06:29:11;;;;;;;8.68;6.50;;;;;;;22.36;63.92;100723.84;5091262;28;20435;-58
2022/07/25 06:31:36;;;;;;;6.53;5.80;;;;;;;22.40;64.04;100720.88;5091236;28;20071;-59
2022/07/25 06:34:01;;;;;;;8.77;5.70;;;;;;;22.48;64.10;100734.59;5091022;28;20443;-59
2022/07/25 06:36:26;;;;;;;9.83;6.17;;;;;;;22.48;64.16;100737.28;5092388;28;20344;-58
2022/07/25 06:38:52;;;;;;;8.57;5.93;;;;;;;22.48;64.21;100718.59;5095139;28;20285;-58
2022/07/25 06:41:17;;;;;;;7.50;6.33;;;;;;;22.49;63.67;100730.13;5094975;28;20439;-58
2022/07/25 06:43:42;;;;;;;7.97;6.90;;;;;;;22.43;63.65;100722.50;5094974;28;20281;-58
2022/07/25 06:46:07;;;;;;;6.60;5.83;;;;;;;22.47;63.95;100727.56;5094546;28;20294;-58
2022/07/25 06:48:33;;;;;;;9.15;6.03;;;;;;;22.52;63.90;100733.41;5095225;28;20648;-58
2022/07/25 06:50:58;;;;;;;9.77;6.10;;;;;;;22.57;63.74;100734.00;5094690;28;20435;-58
2022/07/25 06:53:23;;;;;;;7.97;6.20;;;;;;;22.69;63.74;100736.81;5094428;28;20270;-58
2022/07/25 06:55:49;;;;;;;10.52;6.57;;;;;;;22.69;63.36;100724.31;5094703;28;20069;-58
2022/07/25 06:58:14;;;;;;;7.72;5.90;;;;;;;22.64;63.57;100723.78;5094595;28;20039;-58
2022/07/25 07:00:39;;;;;;;10.33;5.50;;;;;;;22.64;63.88;100730.94;5077280;28;20128;-58
2022/07/25 07:03:05;;;;;;;6.22;5.40;;;;;;;22.60;64.58;100730.28;5105021;28;20767;-58
2022/07/25 07:05:32;;;;;;;7.40;5.68;;;;;;;22.52;65.19;100725.41;5114070;28;20077;-59
2022/07/25 07:07:58;;;;;;;8.57;5.28;;;;;;;22.51;65.61;100729.03;5104639;28;20051;-58
2022/07/25 07:10:25;;;;;;;8.43;5.10;;;;;;;22.52;65.55;100728.09;5091477;27;20328;-59
2022/07/25 07:12:50;;;;;;;7.78;5.07;;;;;;;22.56;65.53;100724.28;5105954;28;20051;-58
2022/07/25 07:15:16;;;;;;;8.50;4.97;;;;;;;22.62;65.98;100723.03;5114674;28;20028;-59
2022/07/25 07:17:41;;;;;;;7.43;4.50;;;;;;;22.67;65.76;100731.59;5114656;28;20127;-59
2022/07/25 07:20:08;;;;;;;10.10;4.50;;;;;;;22.77;65.19;100734.53;5114584;28;20047;-59
2022/07/25 07:22:47;;;;;;;6.00;4.60;;;;;;;22.89;64.58;100725.72;5114646;28;20047;-58
2022/07/25 07:25:17;;;;;;;5.70;4.10;;;;;;;22.96;64.88;100716.34;5114428;28;20080;-58
2022/07/25 07:27:43;;;;;;;6.72;4.50;;;;;;;23.09;64.46;100721.72;5114481;28;20474;-58
2022/07/25 07:30:10;;;;;;;9.18;4.60;;;;;;;23.03;64.48;100720.31;5114601;28;20038;-58
2022/07/25 07:32:35;;;;;;;5.80;3.90;;;;;;;23.16;64.69;100729.22;5114154;28;20113;-58
2022/07/25 07:35:00;;;;;;;4.25;3.60;;;;;;;23.29;64.71;100731.91;5114291;28;20039;-58
2022/07/25 07:37:26;;;;;;;6.82;3.33;;;;;;;23.33;64.24;100733.41;5114353;28;20031;-58
2022/07/25 07:39:51;;;;;;;6.18;3.00;;;;;;;23.35;64.48;100733.31;5114142;28;20442;-58
2022/07/25 07:42:16;;;;;;;5.78;2.97;;;;;;;23.25;64.49;100731.25;5114165;28;20027;-58
2022/07/25 07:44:42;;;;;;;5.47;3.03;;;;;;;23.20;65.04;100735.22;5106932;28;20067;-58
2022/07/25 07:47:07;;;;;;;8.20;3.03;;;;;;;23.16;65.50;100736.38;5096024;28;20039;-58
2022/07/25 07:49:32;;;;;;;9.73;3.10;;;;;;;23.25;65.50;100736.59;5093219;28;20024;-58
2022/07/25 07:51:57;;;;;;;7.67;2.90;;;;;;;23.34;65.38;100743.13;5093509;28;20303;-59
2022/07/25 07:57:07;;;;;;;7.03;2.40;;;;;;;23.79;65.04;100746.28;5094655;28;20296;-59
2022/07/25 07:59:32;;;;;;;5.80;2.30;;;;;;;24.15;63.90;100738.34;5113975;28;20370;-61
2022/07/25 08:01:57;;;;;;;7.22;2.00;;;;;;;24.28;62.83;100733.84;5113895;28;20124;-61
2022/07/25 08:04:22;;;;;;;5.40;2.07;;;;;;;24.17;62.91;100746.25;5113757;28;20693;-60
2022/07/25 08:06:48;;;;;;;5.78;2.00;;;;;;;24.07;63.68;100742.53;5113690;28;20265;-61
2022/07/25 08:09:13;;;;;;;5.57;1.90;;;;;;;24.07;64.09;100739.88;5113674;28;20502;-59
2022/07/25 08:11:38;;;;;;;4.57;1.80;;;;;;;24.11;64.34;100744.00;5113838;28;20273;-60
2022/07/25 08:14:05;;;;;;;6.40;1.77;;;;;;;24.09;65.06;100738.75;5113718;28;20397;-60
2022/07/25 08:16:31;;;;;;;3.70;1.80;;;;;;;24.16;64.09;100737.38;5113555;28;20046;-60
2022/07/25 08:18:56;;;;;;;5.88;1.83;;;;;;;24.30;64.49;100747.09;5113443;28;20435;-61
2022/07/25 08:21:21;;;;;;;3.30;1.90;;;;;;;24.41;64.11;100733.84;5113277;28;20036;-59
2022/07/25 08:23:47;;;;;;;3.03;1.50;;;;;;;24.33;64.81;100738.88;5113531;28;20261;-59
2022/07/25 08:26:13;;;;;;;6.10;1.70;;;;;;;24.33;64.71;100741.53;5113575;28;20023;-60
2022/07/25 08:28:39;;;;;;;4.47;1.60;;;;;;;24.39;65.92;100743.78;5113323;28;20501;-58
2022/07/25 08:31:04;;;;;;;4.45;1.65;;;;;;;24.38;64.72;100744.75;5113313;28;20027;-58
2022/07/25 08:33:30;;;;;;;4.97;1.48;;;;;;;24.29;65.08;100735.56;5113106;28;20466;-59
2022/07/25 08:35:57;;;;;;;4.10;1.40;;;;;;;24.28;64.72;100746.34;5113265;28;20035;-58
2022/07/25 08:38:24;;;;;;;5.82;1.60;;;;;;;24.18;64.85;100758.66;5113151;28;20032;-59
2022/07/25 08:40:50;;;;;;;7.88;1.60;;;;;;;24.11;65.57;100763.59;5113305;28;20032;-59
2022/07/25 08:43:16;;;;;;;3.58;1.30;;;;;;;24.09;65.80;100754.81;5113229;28;20031;-60
2022/07/25 08:45:47;;;;;;;4.88;1.30;;;;;;;24.26;65.05;100761.66;5112868;28;20093;-59
2022/07/25 08:48:16;;;;;;;5.60;1.60;;;;;;;24.40;64.69;100758.03;5112936;28;20032;-60
2022/07/25 08:50:42;;;;;;;5.70;1.50;;;;;;;24.69;64.42;100750.53;5112797;28;20063;-59
2022/07/25 08:53:07;;;;;;;5.22;1.58;;;;;;;24.94;63.85;100745.06;5112761;28;20067;-58
2022/07/25 08:55:33;;;;;;;5.32;1.52;;;;;;;25.21;62.74;100748.38;5112899;28;20031;-59
2022/07/25 08:57:59;;;;;;;5.38;1.55;;;;;;;25.24;61.90;100750.81;5113031;28;20061;-60
2022/07/25 09:00:30;;;;;;;3.60;1.40;;;;;;;25.25;61.74;100755.22;5111787;28;20063;-59
2022/07/25 09:02:55;;;;;;;;;;;;;;;25.49;62.15;100763.19;5112950;28;20503;-59
2022/07/25 09:05:22;;;;;;;4.78;1.90;;;;;;;25.39;61.73;100762.19;5112304;28;19916;-59
2022/07/25 09:07:48;;;;;;;4.60;1.55;;;;;;;25.35;62.30;100762.53;5112600;28;20042;-59
2022/07/25 09:10:19;;;;;;;5.15;1.70;;;;;;;25.39;61.48;100759.50;5112480;28;20039;-59
2022/07/25 09:13:06;;;;;;;5.43;1.90;;;;;;;25.50;61.70;100756.00;5112543;28;20073;-58
2022/07/25 09:15:34;;;;;;;5.47;1.67;;;;;;;25.69;61.50;100763.50;5112344;28;20276;-58
2022/07/25 09:18:02;;;;;;;6.47;1.90;;;;;;;25.80;60.28;100761.69;5112435;28;20044;-58
2022/07/25 09:20:43;;;;;;;5.88;1.65;;;;;;;26.08;60.17;100767.56;5094329;28;20411;-58
2022/07/25 09:23:37;;;;;;;3.85;1.60;;;;;;;26.47;59.31;100764.41;5112334;28;20034;-61
2022/07/25 09:26:09;;;;;;;5.88;1.95;;;;;;;26.51;59.31;100760.47;5112238;28;20096;-60
2022/07/25 09:28:43;;;;;;;2.65;1.60;;;;;;;26.84;58.29;100761.41;5112378;28;20037;-59
2022/07/25 09:31:09;;;;;;;3.08;1.30;;;;;;;27.23;55.35;100774.19;5112404;28;20327;-59
2022/07/25 09:33:44;;;;;;;4.22;1.50;;;;;;;27.25;55.56;100766.88;5111959;28;20054;-60
2022/07/25 09:36:10;;;;;;;5.32;1.55;;;;;;;27.36;53.88;100777.56;5112149;28;20039;-59
2022/07/25 09:38:36;;;;;;;3.38;1.50;;;;;;;27.27;53.38;100786.41;5111839;28;20039;-59
2022/07/25 09:41:02;;;;;;;3.33;1.42;;;;;;;26.69;52.57;100793.88;5112009;28;20430;-58
2022/07/25 09:43:39;;;;;;;4.43;1.80;;;;;;;26.41;54.90;100806.97;5112174;28;20415;-59
2022/07/25 09:46:05;;;;;;;6.28;2.10;;;;;;;26.49;55.48;100797.34;5111823;28;20023;-59
2022/07/25 09:48:31;;;;;;;5.68;1.92;;;;;;;26.52;55.95;100805.13;5111751;28;20027;-59
2022/07/25 09:50:57;;;;;;;5.45;2.03;;;;;;;26.32;55.64;100792.47;5111954;28;20110;-59
2022/07/25 09:53:23;;;;;;;5.80;1.80;;;;;;;26.42;55.60;100795.28;5112025;28;20122;-58
2022/07/25 09:55:49;;;;;;;5.45;2.05;;;;;;;26.61;56.35;100792.81;5112026;28;20794;-59
2022/07/25 09:58:14;;;;;;;5.60;2.08;;;;;;;26.72;55.56;100794.59;5112005;28;20031;-59
2022/07/25 10:00:41;;;;;;;4.82;1.90;;;;;;;26.75;55.39;100805.97;5111756;28;20032;-59
2022/07/25 10:03:28;;;;;;;4.35;2.10;;;;;;;26.61;54.42;100801.72;5111744;28;20054;-59
2022/07/25 10:06:12;;;;;;;4.45;2.10;;;;;;;26.62;54.83;100784.63;5111704;28;20075;-59
2022/07/25 10:08:39;;;;;;;4.53;1.88;;;;;;;26.81;55.37;100789.34;5112192;28;20055;-58
2022/07/25 10:11:05;;;;;;;5.70;1.88;;;;;;;26.78;53.73;100791.44;5112987;28;20035;-59
2022/07/25 10:13:35;;;;;;;5.50;1.80;;;;;;;26.80;53.47;100790.34;5116272;28;20032;-59
2022/07/25 10:16:00;;;;;;;5.20;2.15;;;;;;;26.68;52.39;100805.59;5115670;28;20087;-59
2022/07/25 10:18:27;;;;;;;8.25;2.20;;;;;;;26.58;53.46;100803.78;5116280;28;20032;-58
2022/07/25 10:21:07;;;;;;;4.47;2.00;;;;;;;26.83;54.37;100805.34;5115329;28;20036;-59
2022/07/25 10:23:32;;;;;;;6.07;2.08;;;;;;;27.26;53.31;100791.91;5115930;28;20038;-59
2022/07/25 10:26:06;;;;;;;4.60;2.00;;;;;;;27.72;51.03;100788.88;5115690;28;20438;-60
2022/07/25 10:28:49;;;;;;;5.18;2.03;;;;;;;27.97;50.06;100796.53;5115506;28;20281;-59
2022/07/25 10:31:16;;;;;;;3.33;1.70;;;;;;;27.99;48.43;100794.56;5115667;28;20377;-60
2022/07/25 10:33:42;;;;;;;4.93;1.95;;;;;;;28.18;48.90;100795.66;5115496;28;20216;-60
2022/07/25 10:36:09;;;;;;;4.07;1.88;;;;;;;28.01;47.62;100794.44;5115772;28;20513;-60
2022/07/25 10:38:41;;;;;;;3.60;1.48;;;;;;;28.01;47.22;100780.97;5115808;28;20327;-61
2022/07/25 10:41:09;;;;;;;4.32;2.00;;;;;;;28.01;46.85;100795.28;5108066;28;20051;-60
2022/07/25 10:43:39;;;;;;;3.78;2.17;;;;;;;27.95;46.89;100803.03;5099813;28;20143;-61
2022/07/25 10:46:18;;;;;;;3.70;1.42;;;;;;;27.93;47.82;100805.00;5099538;28;20065;-61
2022/07/25 10:48:44;;;;;;;2.92;1.67;;;;;;;27.98;47.06;100802.78;5112213;28;20031;-59
2022/07/25 10:51:12;;;;;;;5.70;2.05;;;;;;;27.77;47.16;100808.16;5115330;28;20038;-59
2022/07/25 10:53:48;;;;;;;7.70;1.80;;;;;;;27.91;48.23;100804.28;5115149;28;20056;-59
2022/07/25 10:56:23;;;;;;;4.38;1.75;;;;;;;28.25;47.54;100818.34;5115285;28;20046;-59
2022/07/25 10:58:51;;;;;;;4.53;1.77;;;;;;;28.48;45.76;100803.72;5115298;28;20031;-59
2022/07/25 11:01:21;;;;;;;4.25;1.70;;;;;;;28.89;45.85;100810.81;5115067;28;20035;-60
2022/07/25 11:03:48;;;;;;;6.60;2.10;;;;;;;29.13;44.79;100821.19;5115206;28;20032;-59
2022/07/25 11:06:14;;;;;;;3.97;2.25;;;;;;;28.94;43.42;100824.69;5114950;28;20044;-58
2022/07/25 11:08:41;;;;;;;5.15;1.90;;;;;;;28.64;44.01;100822.91;5114818;28;20046;-59
2022/07/25 11:11:07;;;;;;;6.63;2.35;;;;;;;28.47;44.27;100817.31;5113517;28;20039;-58
2022/07/25 11:13:37;;;;;;;5.40;2.33;;;;;;;28.23;45.52;100828.41;5096574;28;20032;-58
2022/07/25 11:16:03;;;;;;;3.90;2.30;;;;;;;28.11;46.26;100824.91;5111956;28;20481;-60
2022/07/25 11:18:37;;;;;;;4.07;2.30;;;;;;;28.36;46.09;100820.97;5114712;28;20027;-58
2022/07/25 11:21:06;;;;;;;4.78;2.90;;;;;;;28.06;45.79;100830.69;5114752;28;20039;-59
2022/07/25 11:23:32;;;;;;;6.32;3.30;;;;;;;27.83;45.29;100822.94;5113498;28;20511;-61